Terminal Aerodrome Forecast
Issued by NWS Blacksburg, VA

Home | Current Version | Previous Version | Text Only | Print | Product List | Glossary On
Versions: 1 2 3 4 5 6 7 8 9 10 11 12 13
000
FTUS41 KRNK 181721
TAFLYH
TAF
KLYH 181721Z 1818/1918 15004KT P6SM OVC150
     FM190000 04010KT P6SM SCT030 OVC100
     FM190700 07012G18KT P6SM -RA OVC025
     FM191400 03011KT 5SM -RA SCT007 OVC015=

USA.gov is the U.S. government's official web portal to all federal, state and local government web resources and services.